createdAt,value
2019-02-18T19:15:49.514Z,13.37
2019-02-18T19:18:13.672Z,13.90
2019-02-18T19:20:43.447Z,13.03
2019-02-18T19:23:13.527Z,13.93
2019-02-18T19:25:42.932Z,15.83
2019-02-18T19:28:13.276Z,18.77
2019-02-18T19:30:43.404Z,22.93
2019-02-18T19:33:12.511Z,27.57
2019-02-18T19:35:42.535Z,14.37
2019-02-18T19:38:12.413Z,13.27
2019-02-18T19:40:42.960Z,12.40
2019-02-18T19:43:12.547Z,13.43
2019-02-18T19:45:41.817Z,13.93
2019-02-18T19:48:11.119Z,14.17
2019-02-18T19:50:41.137Z,14.50
2019-02-18T19:53:10.912Z,14.43
2019-02-18T19:55:41.634Z,14.50
2019-02-18T19:58:13.481Z,13.97
2019-02-18T20:00:43.120Z,13.80
2019-02-18T20:03:12.598Z,13.07
2019-02-18T20:05:44.363Z,10.47
2019-02-18T20:08:14.226Z,11.80
2019-02-18T20:10:46.076Z,12.27
2019-02-18T20:13:16.537Z,11.93
2019-02-18T20:15:47.879Z,12.20
2019-02-18T20:18:17.570Z,13.73
2019-02-18T20:20:48.156Z,12.87
2019-02-18T20:23:17.729Z,11.13
2019-02-18T20:25:47.230Z,10.73
2019-02-18T20:28:17.841Z,13.53
2019-02-18T20:30:47.643Z,9.33
2019-02-18T20:33:17.719Z,8.27
2019-02-18T20:35:47.607Z,7.97
2019-02-18T20:38:17.011Z,8.13
2019-02-18T20:40:46.400Z,7.10
2019-02-18T20:43:15.793Z,9.67
2019-02-18T20:45:46.192Z,7.80
2019-02-18T20:48:16.663Z,8.83
2019-02-18T20:50:46.288Z,9.60
2019-02-18T20:53:16.534Z,9.43
2019-02-18T20:55:46.062Z,10.07
2019-02-18T20:58:15.686Z,9.97
2019-02-18T21:00:45.636Z,10.40
2019-02-18T21:03:16.437Z,11.73
2019-02-18T21:05:45.989Z,10.90
2019-02-18T21:08:15.250Z,11.00
2019-02-18T21:10:45.156Z,12.67
2019-02-18T21:13:14.714Z,12.50
2019-02-18T21:15:44.971Z,11.73
2019-02-18T21:18:15.001Z,11.23
2019-02-18T21:20:45.662Z,12.43
2019-02-18T21:23:16.483Z,14.70
2019-02-18T21:25:45.971Z,11.77
2019-02-18T21:28:16.084Z,12.00
2019-02-18T21:30:45.600Z,10.20
2019-02-18T21:33:15.718Z,10.27
2019-02-18T21:35:45.547Z,11.43
2019-02-18T21:38:16.156Z,10.60
2019-02-18T21:40:46.507Z,11.33
2019-02-18T21:43:16.229Z,11.20
2019-02-18T21:45:46.222Z,11.83
2019-02-18T21:48:16.095Z,12.43
2019-02-18T21:50:46.038Z,12.30
2019-02-18T21:53:15.430Z,11.83
2019-02-18T21:55:45.923Z,12.00
2019-02-18T21:58:16.044Z,12.37
2019-02-18T22:00:45.718Z,12.63
2019-02-18T22:03:15.102Z,13.70
2019-02-18T22:05:45.222Z,13.90
2019-02-18T22:08:14.620Z,12.17
2019-02-18T22:10:44.033Z,14.03
2019-02-18T22:13:13.426Z,12.93
2019-02-18T22:15:44.026Z,11.03
2019-02-18T22:18:13.908Z,12.10
2019-02-18T22:20:43.928Z,10.93
2019-02-18T22:23:14.022Z,11.33
2019-02-18T22:25:43.756Z,10.97
2019-02-18T22:28:12.935Z,11.20
2019-02-18T22:30:43.188Z,10.50
2019-02-18T22:33:13.503Z,10.93
2019-02-18T22:35:43.763Z,10.83
2019-02-18T22:38:13.100Z,11.43
2019-02-18T22:40:43.207Z,11.27
2019-02-18T22:43:12.798Z,11.13
2019-02-18T22:45:43.035Z,11.00
2019-02-18T22:48:12.356Z,10.73
2019-02-18T22:50:43.339Z,10.30
2019-02-18T22:53:13.593Z,11.67
2019-02-18T22:55:42.803Z,12.00
2019-02-18T22:58:12.085Z,11.43
2019-02-18T23:00:53.994Z,12.10
2019-02-18T23:03:23.134Z,11.70
2019-02-18T23:05:53.052Z,10.77
2019-02-18T23:08:22.283Z,11.57
2019-02-18T23:10:51.478Z,12.33
2019-02-18T23:13:21.840Z,12.33
2019-02-18T23:15:51.620Z,11.07
2019-02-18T23:18:22.334Z,11.23
2019-02-18T23:20:52.273Z,11.00
2019-02-18T23:23:22.024Z,11.63
2019-02-18T23:25:51.391Z,11.97
2019-02-18T23:28:21.786Z,11.23
2019-02-18T23:30:51.122Z,11.30
2019-02-18T23:33:20.416Z,10.67
2019-02-18T23:35:49.724Z,11.17
2019-02-18T23:38:19.660Z,10.47
2019-02-18T23:40:49.738Z,9.90
2019-02-18T23:43:19.072Z,10.67
2019-02-18T23:45:49.237Z,10.80
2019-02-18T23:48:18.798Z,10.70
2019-02-18T23:50:48.673Z,10.00
2019-02-18T23:53:18.460Z,8.70
2019-02-18T23:55:49.409Z,10.10
2019-02-18T23:58:19.544Z,10.30
